North Springs, Georgia
Current Conditions -  °F | °C
As of 8:53 AM on Friday 19 Dec 2014 (Local Time) from KPDK Reporting Station
Clear Clear  
Wind Chill: 38°   Ceiling: Unl
Heat Index: 38°   Visibility: 8mi
Dew Point: 32°   Wind: 3mph
Humidity: 79%   Direction: 280°W
Pressure: 30.15"   Gusts: NA
Location:  33.9435°N, 84.3186°W
Report Text: KPDK 191353Z 28003KT 8SM CLR 03/00 A3015 RMK AO2 SLP221 T00330000
Loading
Personal Weather Stations






























Interactive Weather Map New forecast layout! Learn more

10-Day Weather Forecast

Advertisements
Track Severe Weather on mobile